createdAt,value
2022-09-10T07:20:48.774Z,85.81
2022-09-10T07:25:52.482Z,86.63
2022-09-10T07:31:14.585Z,87.44
2022-09-10T07:36:20.480Z,87.65
2022-09-10T07:41:47.385Z,88.44
2022-09-10T07:46:53.464Z,89.82
2022-09-10T07:52:01.270Z,92.81
2022-09-10T07:57:34.733Z,95.09
2022-09-10T08:02:42.794Z,95.90
2022-09-10T08:07:54.468Z,98.04
2022-09-10T08:13:01.022Z,97.75
2022-09-10T08:18:06.271Z,97.03
2022-09-10T08:23:32.837Z,96.78
2022-09-10T08:28:37.694Z,97.79
2022-09-10T08:34:02.427Z,97.29
2022-09-10T08:39:28.236Z,95.82
2022-09-10T08:44:38.369Z,95.90
2022-09-10T08:49:46.268Z,95.35
2022-09-10T08:55:26.700Z,95.12
2022-09-10T09:00:40.785Z,94.66
2022-09-10T09:05:52.081Z,94.84
2022-09-10T09:11:08.028Z,94.02
2022-09-10T09:16:41.344Z,95.27
2022-09-10T09:21:53.203Z,93.40
2022-09-10T09:27:10.030Z,92.79
2022-09-10T09:32:19.920Z,93.08
2022-09-10T09:37:29.425Z,93.04
2022-09-10T09:42:45.478Z,95.27
2022-09-10T09:47:50.833Z,94.20
2022-09-10T09:52:56.516Z,89.13
2022-09-10T09:58:40.199Z,89.41
2022-09-10T10:03:58.610Z,93.00
2022-09-10T10:09:07.646Z,88.65
2022-09-10T10:14:26.401Z,89.89
2022-09-10T10:19:34.953Z,85.36
2022-09-10T10:24:38.540Z,85.83
2022-09-10T10:29:56.445Z,84.87
2022-09-10T10:35:23.401Z,82.02
2022-09-10T10:40:33.947Z,81.41
2022-09-10T10:45:52.817Z,82.27
2022-09-10T10:51:04.701Z,82.96
2022-09-10T10:56:18.782Z,81.77
2022-09-10T11:01:27.799Z,81.96
2022-09-10T11:06:38.356Z,82.47
2022-09-10T11:11:53.478Z,82.34
2022-09-10T11:17:04.711Z,84.16
2022-09-10T11:22:15.207Z,85.71
2022-09-10T11:27:28.649Z,84.19
2022-09-10T11:32:40.022Z,82.05
2022-09-10T11:37:52.882Z,84.61
2022-09-10T11:43:02.152Z,83.17
2022-09-10T11:48:17.396Z,80.64
2022-09-10T11:53:25.795Z,76.79
2022-09-10T11:58:43.288Z,77.75
2022-09-10T12:04:12.657Z,77.73
2022-09-10T12:09:23.508Z,78.46
2022-09-10T12:14:29.711Z,80.24
2022-09-10T12:19:38.507Z,80.50
2022-09-10T12:24:52.562Z,81.00
2022-09-10T12:30:33.731Z,83.47
2022-09-10T12:35:45.761Z,82.80
2022-09-10T12:40:49.625Z,83.48
2022-09-10T12:46:05.046Z,82.53
2022-09-10T12:51:23.585Z,82.53
2022-09-10T12:56:59.527Z,79.15
2022-09-10T13:02:03.437Z,78.04
2022-09-10T13:07:23.720Z,77.41
2022-09-10T13:12:28.625Z,79.40
2022-09-10T13:17:41.205Z,79.47
2022-09-10T13:23:05.959Z,82.07
2022-09-10T13:28:52.987Z,82.79
2022-09-10T13:34:31.221Z,81.43
2022-09-10T13:40:00.129Z,80.42
2022-09-10T13:45:23.334Z,78.93
2022-09-10T13:50:33.754Z,79.73
2022-09-10T13:55:51.586Z,81.82
2022-09-10T14:00:57.740Z,80.43
2022-09-10T14:06:04.044Z,79.07
2022-09-10T14:11:17.004Z,79.27
2022-09-10T14:16:29.508Z,78.95
2022-09-10T14:21:34.116Z,78.97
2022-09-10T14:26:40.035Z,77.93
2022-09-10T14:31:47.083Z,79.61
2022-09-10T14:36:50.632Z,79.63
2022-09-10T14:47:35.740Z,77.52
2022-09-10T14:52:39.486Z,77.57
2022-09-10T14:57:42.940Z,79.03
2022-09-10T15:02:51.540Z,80.47
2022-09-10T15:07:55.090Z,80.78
2022-09-10T15:12:58.819Z,81.08
2022-09-10T15:18:18.296Z,82.10
2022-09-10T15:23:23.422Z,82.07
2022-09-10T15:28:27.031Z,81.18
2022-09-10T15:33:30.567Z,81.69
2022-09-10T15:38:35.675Z,81.39
2022-09-10T15:43:46.972Z,81.47
2022-09-10T15:48:59.911Z,84.14
2022-09-10T15:54:10.814Z,85.59
2022-09-10T15:59:16.562Z,84.97
2022-09-10T16:04:20.290Z,87.81
2022-09-10T16:09:25.209Z,90.08
2022-09-10T16:19:56.272Z,90.59
2022-09-10T16:25:01.183Z,89.86
2022-09-10T16:30:05.305Z,90.17
2022-09-10T16:35:09.811Z,91.18
2022-09-10T16:40:19.184Z,91.84
2022-09-10T16:45:27.762Z,93.80
2022-09-10T16:50:31.658Z,93.91
2022-09-10T16:55:36.783Z,93.17
2022-09-10T17:00:42.789Z,95.96
2022-09-10T17:05:46.729Z,95.17
2022-09-10T17:10:51.880Z,97.12
2022-09-10T17:16:15.627Z,98.89
2022-09-10T17:21:19.262Z,100.00
2022-09-10T17:26:27.020Z,100.00
2022-09-10T17:31:31.337Z,100.00
2022-09-10T17:36:36.686Z,100.00
2022-09-10T17:41:43.011Z,100.00
2022-09-10T17:46:46.510Z,100.00
2022-09-10T17:51:50.979Z,100.00
2022-09-10T17:56:56.004Z,100.00
2022-09-10T18:02:02.413Z,100.00
2022-09-10T18:07:06.292Z,100.00
2022-09-10T18:12:11.312Z,100.00
2022-09-10T18:17:14.811Z,100.00
2022-09-10T18:22:18.306Z,100.00
2022-09-10T18:27:26.471Z,100.00
2022-09-10T18:32:32.340Z,100.00
2022-09-10T18:37:36.182Z,100.00
2022-09-10T18:42:46.618Z,100.00
2022-09-10T18:47:52.793Z,100.00
2022-09-10T18:52:56.259Z,100.00
2022-09-10T18:58:01.735Z,100.00
2022-09-10T19:03:14.901Z,100.00
2022-09-10T19:08:19.238Z,100.00
2022-09-10T19:13:25.163Z,100.00
2022-09-10T19:18:29.263Z,100.00
2022-09-10T19:23:35.652Z,100.00
2022-09-10T19:34:04.962Z,100.00
2022-09-10T19:39:12.655Z,100.00
2022-09-10T19:49:39.165Z,100.00
2022-09-10T19:54:45.424Z,100.00
2022-09-10T20:00:00.860Z,100.00
2022-09-10T20:05:08.230Z,100.00
2022-09-10T20:15:51.325Z,100.00
2022-09-10T20:20:59.671Z,100.00
2022-09-10T20:26:26.593Z,100.00
2022-09-10T20:31:47.061Z,100.00
2022-09-10T20:36:54.882Z,100.00
2022-09-10T20:42:05.165Z,100.00
2022-09-10T20:47:10.429Z,100.00
2022-09-10T20:52:14.257Z,100.00
2022-09-10T20:57:25.491Z,100.00
2022-09-10T21:02:33.608Z,100.00
2022-09-10T21:07:50.733Z,100.00
2022-09-10T21:13:42.360Z,100.00
2022-09-10T21:25:33.638Z,100.00
2022-09-10T21:32:24.258Z,100.00
2022-09-10T21:49:42.794Z,100.00
2022-09-10T22:00:34.342Z,100.00
2022-09-10T22:17:26.970Z,100.00
2022-09-10T22:29:05.404Z,100.00
2022-09-10T22:33:46.265Z,100.00
2022-09-10T22:38:51.257Z,100.00
2022-09-10T22:44:03.151Z,100.00
2022-09-10T22:49:21.823Z,100.00
2022-09-10T22:54:39.794Z,100.00
2022-09-10T22:59:47.239Z,100.00
2022-09-10T23:04:51.127Z,100.00
2022-09-10T23:09:55.537Z,100.00
2022-09-10T23:15:02.078Z,100.00
2022-09-10T23:20:10.464Z,100.00
2022-09-10T23:25:38.833Z,100.00
2022-09-10T23:30:45.728Z,100.00
2022-09-10T23:35:51.339Z,100.00
2022-09-10T23:53:37.555Z,100.00
2022-09-10T23:59:16.103Z,100.00
